sensor_id;sensor_type;location;lat;lon;timestamp;pressure;altitude;pressure_sealevel;temperature;humidity
11347;BME280;5728;42.722;23.258;2023-04-07T00:00:21;94478.59;;;2.68;63.88
11347;BME280;5728;42.722;23.258;2023-04-07T00:02:49;94481.91;;;2.56;64.21
11347;BME280;5728;42.722;23.258;2023-04-07T00:05:16;94482.69;;;2.52;64.52
11347;BME280;5728;42.722;23.258;2023-04-07T00:07:43;94479.31;;;2.54;65.41
11347;BME280;5728;42.722;23.258;2023-04-07T00:10:10;94481.72;;;2.38;65.06
11347;BME280;5728;42.722;23.258;2023-04-07T00:12:36;94484.13;;;2.26;65.17
11347;BME280;5728;42.722;23.258;2023-04-07T00:15:04;94482.41;;;2.25;65.69
11347;BME280;5728;42.722;23.258;2023-04-07T00:17:30;94475.59;;;2.27;65.94
11347;BME280;5728;42.722;23.258;2023-04-07T00:20:00;94491.81;;;2.27;66.42
11347;BME280;5728;42.722;23.258;2023-04-07T00:22:27;94484.28;;;2.38;66.90
11347;BME280;5728;42.722;23.258;2023-04-07T00:24:53;94475.97;;;2.60;66.11
11347;BME280;5728;42.722;23.258;2023-04-07T00:27:20;94475.91;;;2.54;65.86
11347;BME280;5728;42.722;23.258;2023-04-07T00:29:47;94483.34;;;2.31;65.25
11347;BME280;5728;42.722;23.258;2023-04-07T00:32:14;94478.38;;;2.43;66.57
11347;BME280;5728;42.722;23.258;2023-04-07T00:34:41;94484.31;;;2.41;65.51
11347;BME280;5728;42.722;23.258;2023-04-07T00:37:09;94470.72;;;2.48;67.44
11347;BME280;5728;42.722;23.258;2023-04-07T00:39:35;94472.56;;;2.61;65.17
11347;BME280;5728;42.722;23.258;2023-04-07T00:42:02;94479.44;;;2.65;65.50
11347;BME280;5728;42.722;23.258;2023-04-07T00:44:29;94474.41;;;2.77;65.00
11347;BME280;5728;42.722;23.258;2023-04-07T00:46:56;94472.66;;;2.70;63.72
11347;BME280;5728;42.722;23.258;2023-04-07T00:49:24;94475.19;;;2.69;64.38
11347;BME280;5728;42.722;23.258;2023-04-07T00:51:52;94482.09;;;2.74;64.88
11347;BME280;5728;42.722;23.258;2023-04-07T00:54:22;94473.47;;;2.66;62.99
11347;BME280;5728;42.722;23.258;2023-04-07T00:56:49;94483.88;;;2.84;62.99
11347;BME280;5728;42.722;23.258;2023-04-07T00:59:19;94477.91;;;2.85;63.42
11347;BME280;5728;42.722;23.258;2023-04-07T01:01:51;94466.50;;;2.53;62.13
11347;BME280;5728;42.722;23.258;2023-04-07T01:04:25;94468.22;;;2.51;63.09
11347;BME280;5728;42.722;23.258;2023-04-07T01:06:58;94469.91;;;2.52;62.39
11347;BME280;5728;42.722;23.258;2023-04-07T01:09:35;94478.44;;;2.52;61.74
11347;BME280;5728;42.722;23.258;2023-04-07T01:12:06;94469.16;;;2.62;62.50
11347;BME280;5728;42.722;23.258;2023-04-07T01:14:37;94464.94;;;2.67;61.87
11347;BME280;5728;42.722;23.258;2023-04-07T01:17:06;94476.81;;;2.61;62.65
11347;BME280;5728;42.722;23.258;2023-04-07T01:19:36;94470.94;;;2.72;62.29
11347;BME280;5728;42.722;23.258;2023-04-07T01:22:07;94466.69;;;2.73;62.04
11347;BME280;5728;42.722;23.258;2023-04-07T01:24:59;94466.50;;;2.54;62.44
11347;BME280;5728;42.722;23.258;2023-04-07T01:27:35;94462.38;;;2.67;61.24
11347;BME280;5728;42.722;23.258;2023-04-07T01:30:09;94457.38;;;2.79;61.65
11347;BME280;5728;42.722;23.258;2023-04-07T01:32:38;94460.84;;;2.84;61.55
11347;BME280;5728;42.722;23.258;2023-04-07T01:35:09;94453.22;;;2.95;59.84
11347;BME280;5728;42.722;23.258;2023-04-07T01:37:38;94457.56;;;3.03;60.09
11347;BME280;5728;42.722;23.258;2023-04-07T01:40:07;94459.34;;;3.10;61.42
11347;BME280;5728;42.722;23.258;2023-04-07T01:42:34;94460.97;;;3.02;59.14
11347;BME280;5728;42.722;23.258;2023-04-07T01:45:05;94465.50;;;3.37;58.94
11347;BME280;5728;42.722;23.258;2023-04-07T01:47:33;94462.06;;;3.32;58.51
11347;BME280;5728;42.722;23.258;2023-04-07T01:50:02;94447.56;;;3.37;57.86
11347;BME280;5728;42.722;23.258;2023-04-07T01:52:30;94447.53;;;3.35;59.19
11347;BME280;5728;42.722;23.258;2023-04-07T01:54:57;94459.59;;;3.47;58.94
11347;BME280;5728;42.722;23.258;2023-04-07T01:57:25;94451.03;;;3.42;58.13
11347;BME280;5728;42.722;23.258;2023-04-07T01:59:52;94444.22;;;3.48;58.57
11347;BME280;5728;42.722;23.258;2023-04-07T02:02:20;94443.34;;;3.46;58.74
11347;BME280;5728;42.722;23.258;2023-04-07T02:04:52;94442.47;;;3.43;57.82
11347;BME280;5728;42.722;23.258;2023-04-07T02:07:25;94455.28;;;3.40;58.34
11347;BME280;5728;42.722;23.258;2023-04-07T02:09:55;94452.63;;;3.25;58.08
11347;BME280;5728;42.722;23.258;2023-04-07T02:12:25;94443.31;;;3.39;60.49
11347;BME280;5728;42.722;23.258;2023-04-07T02:14:53;94443.28;;;3.34;59.56
11347;BME280;5728;42.722;23.258;2023-04-07T02:17:23;94447.50;;;3.25;58.71
11347;BME280;5728;42.722;23.258;2023-04-07T02:19:51;94441.63;;;3.42;58.04
11347;BME280;5728;42.722;23.258;2023-04-07T02:22:19;94445.13;;;3.56;58.36
11347;BME280;5728;42.722;23.258;2023-04-07T02:24:46;94449.16;;;3.22;65.46
11347;BME280;5728;42.722;23.258;2023-04-07T02:27:13;94438.69;;;2.92;68.75
11347;BME280;5728;42.722;23.258;2023-04-07T02:29:39;94445.34;;;2.72;66.62
11347;BME280;5728;42.722;23.258;2023-04-07T02:32:06;94443.03;;;3.02;71.53
11347;BME280;5728;42.722;23.258;2023-04-07T02:34:35;94447.41;;;3.09;70.34
11347;BME280;5728;42.722;23.258;2023-04-07T02:37:02;94448.09;;;2.92;71.61
11347;BME280;5728;42.722;23.258;2023-04-07T02:39:29;94440.44;;;2.92;71.04
11347;BME280;5728;42.722;23.258;2023-04-07T02:41:56;94450.69;;;2.96;71.39
11347;BME280;5728;42.722;23.258;2023-04-07T02:44:22;94449.88;;;3.00;71.30
11347;BME280;5728;42.722;23.258;2023-04-07T02:46:49;94449.19;;;3.19;70.86
11347;BME280;5728;42.722;23.258;2023-04-07T02:49:16;94443.97;;;3.10;71.35
11347;BME280;5728;42.722;23.258;2023-04-07T02:51:44;94449.13;;;3.13;70.18
11347;BME280;5728;42.722;23.258;2023-04-07T02:54:11;94452.59;;;3.23;72.53
11347;BME280;5728;42.722;23.258;2023-04-07T02:56:38;94443.25;;;3.33;71.28
11347;BME280;5728;42.722;23.258;2023-04-07T02:59:05;94450.63;;;2.89;66.70
11347;BME280;5728;42.722;23.258;2023-04-07T03:01:32;94457.50;;;2.97;69.57
11347;BME280;5728;42.722;23.258;2023-04-07T03:03:59;94460.84;;;2.84;67.58
11347;BME280;5728;42.722;23.258;2023-04-07T03:06:25;94458.41;;;3.01;65.94
11347;BME280;5728;42.722;23.258;2023-04-07T03:08:53;94459.38;;;3.13;61.77
11347;BME280;5728;42.722;23.258;2023-04-07T03:11:21;94456.84;;;3.22;60.60
11347;BME280;5728;42.722;23.258;2023-04-07T03:13:47;94450.13;;;3.32;59.55
11347;BME280;5728;42.722;23.258;2023-04-07T03:16:14;94456.84;;;3.19;58.03
11347;BME280;5728;42.722;23.258;2023-04-07T03:18:41;94453.47;;;3.28;58.66
11347;BME280;5728;42.722;23.258;2023-04-07T03:21:07;94457.91;;;3.49;59.03
11347;BME280;5728;42.722;23.258;2023-04-07T03:23:34;94467.97;;;3.23;58.21
11347;BME280;5728;42.722;23.258;2023-04-07T03:26:02;94449.16;;;3.16;58.85
11347;BME280;5728;42.722;23.258;2023-04-07T03:28:29;94452.59;;;3.21;58.53
11347;BME280;5728;42.722;23.258;2023-04-07T03:30:56;94438.94;;;3.24;58.42
11347;BME280;5728;42.722;23.258;2023-04-07T03:33:23;94447.41;;;3.15;58.40
11347;BME280;5728;42.722;23.258;2023-04-07T03:35:49;94453.47;;;3.28;58.85
11347;BME280;5728;42.722;23.258;2023-04-07T03:38:16;94452.63;;;3.28;58.81
11347;BME280;5728;42.722;23.258;2023-04-07T03:40:43;94450.94;;;3.30;57.63
11347;BME280;5728;42.722;23.258;2023-04-07T03:43:11;94449.94;;;3.06;58.88
11347;BME280;5728;42.722;23.258;2023-04-07T03:45:40;94445.72;;;3.14;58.74
11347;BME280;5728;42.722;23.258;2023-04-07T03:48:07;94462.84;;;3.21;59.32
11347;BME280;5728;42.722;23.258;2023-04-07T03:50:36;94463.63;;;3.11;59.00
11347;BME280;5728;42.722;23.258;2023-04-07T03:53:03;94455.94;;;3.11;58.92
11347;BME280;5728;42.722;23.258;2023-04-07T03:55:29;94457.75;;;3.25;59.57
11347;BME280;5728;42.722;23.258;2023-04-07T03:57:57;94460.75;;;2.75;60.16
11347;BME280;5728;42.722;23.258;2023-04-07T04:00:25;94455.63;;;2.75;60.80
11347;BME280;5728;42.722;23.258;2023-04-07T04:02:52;94450.50;;;2.75;60.24
11347;BME280;5728;42.722;23.258;2023-04-07T04:05:19;94466.00;;;2.90;60.75
11347;BME280;5728;42.722;23.258;2023-04-07T04:07:46;94483.97;;;2.95;60.11
11347;BME280;5728;42.722;23.258;2023-04-07T04:10:12;94473.03;;;3.15;60.35
11347;BME280;5728;42.722;23.258;2023-04-07T04:12:40;94485.19;;;3.44;60.57
11347;BME280;5728;42.722;23.258;2023-04-07T04:15:08;94494.63;;;3.45;66.30
11347;BME280;5728;42.722;23.258;2023-04-07T04:17:36;94477.38;;;3.24;69.90
11347;BME280;5728;42.722;23.258;2023-04-07T04:20:04;94480.59;;;2.99;73.16
11347;BME280;5728;42.722;23.258;2023-04-07T04:22:31;94484.78;;;2.89;73.35
11347;BME280;5728;42.722;23.258;2023-04-07T04:24:58;94474.66;;;3.07;73.06
11347;BME280;5728;42.722;23.258;2023-04-07T04:27:25;94481.44;;;2.96;73.17
11347;BME280;5728;42.722;23.258;2023-04-07T04:29:52;94482.13;;;2.79;73.80
11347;BME280;5728;42.722;23.258;2023-04-07T04:32:19;94484.53;;;2.65;74.83
11347;BME280;5728;42.722;23.258;2023-04-07T04:34:48;94485.63;;;2.90;72.99
11347;BME280;5728;42.722;23.258;2023-04-07T04:37:14;94490.63;;;2.76;74.20
11347;BME280;5728;42.722;23.258;2023-04-07T04:39:41;94490.59;;;2.72;74.43
11347;BME280;5728;42.722;23.258;2023-04-07T04:42:08;94490.75;;;2.90;73.47
11347;BME280;5728;42.722;23.258;2023-04-07T04:44:35;94492.50;;;2.94;74.46
11347;BME280;5728;42.722;23.258;2023-04-07T04:47:01;94500.75;;;2.64;74.87
11347;BME280;5728;42.722;23.258;2023-04-07T04:49:28;94498.19;;;2.67;74.65
11347;BME280;5728;42.722;23.258;2023-04-07T04:51:56;94503.56;;;2.91;74.01
11347;BME280;5728;42.722;23.258;2023-04-07T04:54:23;94506.31;;;3.11;73.92
11347;BME280;5728;42.722;23.258;2023-04-07T04:56:49;94508.97;;;3.28;73.17
11347;BME280;5728;42.722;23.258;2023-04-07T04:59:16;94508.16;;;3.29;72.84
11347;BME280;5728;42.722;23.258;2023-04-07T05:01:43;94508.22;;;3.38;72.67
11347;BME280;5728;42.722;23.258;2023-04-07T05:04:10;94502.06;;;3.17;73.76
11347;BME280;5728;42.722;23.258;2023-04-07T05:06:36;94509.84;;;3.27;75.51
11347;BME280;5728;42.722;23.258;2023-04-07T05:09:05;94509.84;;;3.28;73.25
11347;BME280;5728;42.722;23.258;2023-04-07T05:11:31;94513.41;;;3.48;73.49
11347;BME280;5728;42.722;23.258;2023-04-07T05:13:58;94510.03;;;3.54;73.77
11347;BME280;5728;42.722;23.258;2023-04-07T05:16:25;94529.56;;;3.37;72.28
11347;BME280;5728;42.722;23.258;2023-04-07T05:18:52;94523.72;;;3.56;72.38
11347;BME280;5728;42.722;23.258;2023-04-07T05:21:18;94525.50;;;3.66;72.11
11347;BME280;5728;42.722;23.258;2023-04-07T05:23:46;94524.69;;;3.70;70.48
11347;BME280;5728;42.722;23.258;2023-04-07T05:26:14;94531.09;;;3.13;72.25
11347;BME280;5728;42.722;23.258;2023-04-07T05:28:41;94536.50;;;3.50;72.35
11347;BME280;5728;42.722;23.258;2023-04-07T05:31:07;94523.16;;;4.02;70.86
11347;BME280;5728;42.722;23.258;2023-04-07T05:33:34;94524.19;;;4.39;72.06
11347;BME280;5728;42.722;23.258;2023-04-07T05:36:01;94529.19;;;4.13;68.91
11347;BME280;5728;42.722;23.258;2023-04-07T05:38:28;94528.50;;;4.49;70.88
11347;BME280;5728;42.722;23.258;2023-04-07T05:40:55;94518.28;;;4.66;67.46
11347;BME280;5728;42.722;23.258;2023-04-07T05:43:23;94523.44;;;4.75;67.90
11347;BME280;5728;42.722;23.258;2023-04-07T05:45:49;94516.63;;;4.89;66.46
11347;BME280;5728;42.722;23.258;2023-04-07T05:48:16;94521.78;;;4.86;67.26
11347;BME280;5728;42.722;23.258;2023-04-07T05:50:43;94527.78;;;5.07;66.83
11347;BME280;5728;42.722;23.258;2023-04-07T05:53:10;94521.75;;;4.80;66.48
11347;BME280;5728;42.722;23.258;2023-04-07T05:55:37;94525.22;;;5.03;68.39
11347;BME280;5728;42.722;23.258;2023-04-07T05:58:03;94520.94;;;5.22;66.92
11347;BME280;5728;42.722;23.258;2023-04-07T06:00:32;94531.22;;;5.18;66.25
11347;BME280;5728;42.722;23.258;2023-04-07T06:02:59;94518.34;;;5.02;67.17
11347;BME280;5728;42.722;23.258;2023-04-07T06:05:26;94526.06;;;5.02;67.94
11347;BME280;5728;42.722;23.258;2023-04-07T06:07:52;94526.09;;;5.15;67.33
11347;BME280;5728;42.722;23.258;2023-04-07T06:10:19;94515.81;;;5.47;68.06
11347;BME280;5728;42.722;23.258;2023-04-07T06:12:46;94524.38;;;5.45;66.65
11347;BME280;5728;42.722;23.258;2023-04-07T06:15:13;94522.66;;;5.53;66.33
11347;BME280;5728;42.722;23.258;2023-04-07T06:17:41;94527.81;;;5.68;65.91
11347;BME280;5728;42.722;23.258;2023-04-07T06:20:10;94523.44;;;6.26;64.60
11347;BME280;5728;42.722;23.258;2023-04-07T06:22:38;94516.44;;;6.52;62.80
11347;BME280;5728;42.722;23.258;2023-04-07T06:25:06;94523.03;;;7.07;59.11
11347;BME280;5728;42.722;23.258;2023-04-07T06:27:32;94530.06;;;6.81;54.27
11347;BME280;5728;42.722;23.258;2023-04-07T06:29:59;94520.63;;;6.82;50.03
11347;BME280;5728;42.722;23.258;2023-04-07T06:32:26;94530.00;;;6.87;48.99
11347;BME280;5728;42.722;23.258;2023-04-07T06:34:54;94518.09;;;6.68;47.60
11347;BME280;5728;42.722;23.258;2023-04-07T06:37:21;94528.47;;;6.47;49.75
11347;BME280;5728;42.722;23.258;2023-04-07T06:39:50;94519.22;;;5.95;48.51
11347;BME280;5728;42.722;23.258;2023-04-07T06:42:16;94521.78;;;6.01;49.71
11347;BME280;5728;42.722;23.258;2023-04-07T06:44:43;94514.81;;;6.27;48.29
11347;BME280;5728;42.722;23.258;2023-04-07T06:47:10;94518.28;;;6.26;48.96
11347;BME280;5728;42.722;23.258;2023-04-07T06:49:37;94528.47;;;6.53;48.31
11347;BME280;5728;42.722;23.258;2023-04-07T06:52:05;94531.13;;;6.30;48.46
11347;BME280;5728;42.722;23.258;2023-04-07T06:54:32;94570.59;;;6.35;48.01
11347;BME280;5728;42.722;23.258;2023-04-07T06:56:58;94535.50;;;6.03;49.03
11347;BME280;5728;42.722;23.258;2023-04-07T06:59:25;94532.94;;;5.95;49.23
11347;BME280;5728;42.722;23.258;2023-04-07T07:01:52;94537.97;;;6.47;48.39
11347;BME280;5728;42.722;23.258;2023-04-07T07:04:19;94535.41;;;6.37;48.26
11347;BME280;5728;42.722;23.258;2023-04-07T07:06:46;94532.78;;;6.48;48.31
11347;BME280;5728;42.722;23.258;2023-04-07T07:09:14;94535.47;;;6.12;47.95
11347;BME280;5728;42.722;23.258;2023-04-07T07:11:40;94534.59;;;6.26;48.41
11347;BME280;5728;42.722;23.258;2023-04-07T07:14:07;94542.25;;;6.41;48.72
11347;BME280;5728;42.722;23.258;2023-04-07T07:16:34;94541.38;;;6.49;47.14
11347;BME280;5728;42.722;23.258;2023-04-07T07:19:01;94545.66;;;6.48;47.19
11347;BME280;5728;42.722;23.258;2023-04-07T07:21:28;94542.25;;;6.49;46.98
11347;BME280;5728;42.722;23.258;2023-04-07T07:23:55;94541.41;;;6.41;47.20
11347;BME280;5728;42.722;23.258;2023-04-07T07:26:23;94542.19;;;6.64;47.14
11347;BME280;5728;42.722;23.258;2023-04-07T07:28:50;94554.28;;;6.44;47.32
11347;BME280;5728;42.722;23.258;2023-04-07T07:31:17;94557.59;;;6.67;47.40
11347;BME280;5728;42.722;23.258;2023-04-07T07:33:44;94554.22;;;6.53;46.79
11347;BME280;5728;42.722;23.258;2023-04-07T07:36:13;94548.09;;;6.84;46.79
11347;BME280;5728;42.722;23.258;2023-04-07T07:38:40;94565.16;;;7.06;46.31
11347;BME280;5728;42.722;23.258;2023-04-07T07:41:06;94551.50;;;6.89;46.15
11347;BME280;5728;42.722;23.258;2023-04-07T07:43:34;94561.78;;;6.91;46.46
11347;BME280;5728;42.722;23.258;2023-04-07T07:46:02;94557.50;;;6.94;46.25
11347;BME280;5728;42.722;23.258;2023-04-07T07:48:29;94556.69;;;6.82;46.53
11347;BME280;5728;42.722;23.258;2023-04-07T07:50:56;94543.81;;;6.77;45.97
11347;BME280;5728;42.722;23.258;2023-04-07T07:53:23;94553.94;;;7.11;45.87
11347;BME280;5728;42.722;23.258;2023-04-07T07:55:50;94553.97;;;7.06;45.82
11347;BME280;5728;42.722;23.258;2023-04-07T07:58:17;94561.66;;;7.15;44.94
11347;BME280;5728;42.722;23.258;2023-04-07T08:00:45;94563.59;;;6.77;46.56
11347;BME280;5728;42.722;23.258;2023-04-07T08:03:11;94563.66;;;6.56;46.60
11347;BME280;5728;42.722;23.258;2023-04-07T08:05:38;94570.41;;;6.85;46.59
11347;BME280;5728;42.722;23.258;2023-04-07T08:08:05;94560.09;;;6.85;45.68
11347;BME280;5728;42.722;23.258;2023-04-07T08:10:32;94563.47;;;7.01;46.30
11347;BME280;5728;42.722;23.258;2023-04-07T08:12:59;94558.16;;;7.27;46.11
11347;BME280;5728;42.722;23.258;2023-04-07T08:15:25;94563.94;;;7.62;45.65
11347;BME280;5728;42.722;23.258;2023-04-07T08:17:53;94565.50;;;7.78;45.65
11347;BME280;5728;42.722;23.258;2023-04-07T08:20:20;94556.31;;;7.44;45.29
11347;BME280;5728;42.722;23.258;2023-04-07T08:22:47;94564.91;;;7.44;46.17
11347;BME280;5728;42.722;23.258;2023-04-07T08:25:14;94569.50;;;6.95;46.34
11347;BME280;5728;42.722;23.258;2023-04-07T08:27:41;94558.28;;;7.05;46.95
11347;BME280;5728;42.722;23.258;2023-04-07T08:30:08;94566.59;;;7.51;46.29
11347;BME280;5728;42.722;23.258;2023-04-07T08:32:35;94568.81;;;7.95;44.84
11347;BME280;5728;42.722;23.258;2023-04-07T08:35:04;94569.00;;;7.74;45.34
11347;BME280;5728;42.722;23.258;2023-04-07T08:37:31;94565.47;;;7.84;44.78
11347;BME280;5728;42.722;23.258;2023-04-07T08:39:58;94572.44;;;7.73;44.54
11347;BME280;5728;42.722;23.258;2023-04-07T08:42:27;94560.53;;;7.54;44.68
11347;BME280;5728;42.722;23.258;2023-04-07T08:44:55;94562.22;;;7.58;45.23
11347;BME280;5728;42.722;23.258;2023-04-07T08:47:24;94551.91;;;7.59;44.40
11347;BME280;5728;42.722;23.258;2023-04-07T08:49:52;94562.94;;;7.77;44.35
11347;BME280;5728;42.722;23.258;2023-04-07T08:52:22;94580.03;;;7.91;44.69
11347;BME280;5728;42.722;23.258;2023-04-07T08:54:52;94572.38;;;7.79;44.10
11347;BME280;5728;42.722;23.258;2023-04-07T08:57:20;94562.19;;;7.61;45.01
11347;BME280;5728;42.722;23.258;2023-04-07T08:59:47;94567.50;;;7.44;45.16
11347;BME280;5728;42.722;23.258;2023-04-07T09:02:17;94573.41;;;7.60;45.57
11347;BME280;5728;42.722;23.258;2023-04-07T09:04:44;94566.03;;;8.18;45.33
11347;BME280;5728;42.722;23.258;2023-04-07T09:07:12;94564.41;;;8.87;42.60
11347;BME280;5728;42.722;23.258;2023-04-07T09:09:40;94561.25;;;8.64;43.07
11347;BME280;5728;42.722;23.258;2023-04-07T09:12:07;94563.78;;;9.35;42.69
11347;BME280;5728;42.722;23.258;2023-04-07T09:14:33;94551.88;;;9.82;44.13
11347;BME280;5728;42.722;23.258;2023-04-07T09:17:00;94561.75;;;10.09;40.79
11347;BME280;5728;42.722;23.258;2023-04-07T09:19:27;94558.16;;;9.66;41.11
11347;BME280;5728;42.722;23.258;2023-04-07T09:21:55;94564.16;;;9.08;41.71
11347;BME280;5728;42.722;23.258;2023-04-07T09:24:23;94560.31;;;9.35;42.54
11347;BME280;5728;42.722;23.258;2023-04-07T09:27:07;94558.53;;;9.41;40.87
11347;BME280;5728;42.722;23.258;2023-04-07T09:29:34;94561.66;;;9.01;41.59
11347;BME280;5728;42.722;23.258;2023-04-07T09:32:01;94563.69;;;8.74;42.20
11347;BME280;5728;42.722;23.258;2023-04-07T09:34:30;94562.25;;;9.19;42.80
11347;BME280;5728;42.722;23.258;2023-04-07T09:36:57;94575.66;;;8.84;41.81
11347;BME280;5728;42.722;23.258;2023-04-07T09:39:24;94569.91;;;8.60;42.68
11347;BME280;5728;42.722;23.258;2023-04-07T09:41:53;94566.78;;;8.30;43.76
11347;BME280;5728;42.722;23.258;2023-04-07T09:44:20;94590.88;;;8.32;45.83
11347;BME280;5728;42.722;23.258;2023-04-07T09:46:48;94581.59;;;8.06;44.73
11347;BME280;5728;42.722;23.258;2023-04-07T09:49:14;94579.88;;;8.09;45.90
11347;BME280;5728;42.722;23.258;2023-04-07T09:51:51;94580.81;;;8.02;45.78
11347;BME280;5728;42.722;23.258;2023-04-07T09:54:31;94582.25;;;8.35;45.71
11347;BME280;5728;42.722;23.258;2023-04-07T09:57:00;94577.59;;;8.64;45.72
11347;BME280;5728;42.722;23.258;2023-04-07T09:59:28;94576.56;;;8.79;45.73
11347;BME280;5728;42.722;23.258;2023-04-07T10:01:55;94583.44;;;8.83;44.13
11347;BME280;5728;42.722;23.258;2023-04-07T10:04:22;94581.63;;;8.91;45.14
11347;BME280;5728;42.722;23.258;2023-04-07T10:06:51;94577.34;;;9.49;44.65
11347;BME280;5728;42.722;23.258;2023-04-07T10:09:19;94576.28;;;9.03;42.98
11347;BME280;5728;42.722;23.258;2023-04-07T10:11:46;94569.41;;;9.04;44.12
11347;BME280;5728;42.722;23.258;2023-04-07T10:14:16;94562.53;;;9.01;44.35
11347;BME280;5728;42.722;23.258;2023-04-07T10:16:45;94579.88;;;8.93;44.20
11347;BME280;5728;42.722;23.258;2023-04-07T10:19:12;94575.06;;;9.30;44.48
11347;BME280;5728;42.722;23.258;2023-04-07T10:21:41;94566.84;;;9.61;45.12
11347;BME280;5728;42.722;23.258;2023-04-07T10:24:18;94570.09;;;9.73;45.49
11347;BME280;5728;42.722;23.258;2023-04-07T10:26:52;94575.69;;;9.45;44.78
11347;BME280;5728;42.722;23.258;2023-04-07T10:29:23;94575.50;;;8.96;45.37
11347;BME280;5728;42.722;23.258;2023-04-07T10:31:51;94583.63;;;8.68;46.22
11347;BME280;5728;42.722;23.258;2023-04-07T10:37:24;94581.22;;;8.50;46.29
11347;BME280;5728;42.722;23.258;2023-04-07T10:42:52;94591.81;;;8.22;47.37
11347;BME280;5728;42.722;23.258;2023-04-07T10:45:53;94592.69;;;8.20;48.21
11347;BME280;5728;42.722;23.258;2023-04-07T10:48:21;94589.84;;;8.50;48.47
11347;BME280;5728;42.722;23.258;2023-04-07T10:54:17;94595.97;;;8.39;48.33
11347;BME280;5728;42.722;23.258;2023-04-07T10:57:12;94591.53;;;8.51;47.18
11347;BME280;5728;42.722;23.258;2023-04-07T11:02:40;94591.47;;;8.57;50.08
11347;BME280;5728;42.722;23.258;2023-04-07T11:05:07;94593.16;;;8.63;48.45
11347;BME280;5728;42.722;23.258;2023-04-07T11:07:58;94600.09;;;8.56;48.31
11347;BME280;5728;42.722;23.258;2023-04-07T11:10:27;94600.56;;;8.93;48.31
11347;BME280;5728;42.722;23.258;2023-04-07T11:13:01;94589.88;;;9.17;46.85
11347;BME280;5728;42.722;23.258;2023-04-07T11:15:28;94591.78;;;9.06;47.98
11347;BME280;5728;42.722;23.258;2023-04-07T11:18:11;94594.41;;;9.00;47.62
11347;BME280;5728;42.722;23.258;2023-04-07T11:20:43;94589.25;;;9.00;46.94
11347;BME280;5728;42.722;23.258;2023-04-07T11:23:11;94589.69;;;9.34;47.00
11347;BME280;5728;42.722;23.258;2023-04-07T11:25:38;94591.44;;;9.30;46.00
11347;BME280;5728;42.722;23.258;2023-04-07T11:28:08;94592.94;;;9.46;45.96
11347;BME280;5728;42.722;23.258;2023-04-07T11:30:35;94591.28;;;9.42;46.06
11347;BME280;5728;42.722;23.258;2023-04-07T11:33:03;94595.47;;;9.51;48.33
11347;BME280;5728;42.722;23.258;2023-04-07T11:35:31;94596.22;;;9.57;47.26
11347;BME280;5728;42.722;23.258;2023-04-07T11:37:58;94604.25;;;9.41;48.74
11347;BME280;5728;42.722;23.258;2023-04-07T11:40:34;94595.91;;;9.18;47.90
11347;BME280;5728;42.722;23.258;2023-04-07T11:43:01;94604.75;;;9.66;47.70
11347;BME280;5728;42.722;23.258;2023-04-07T11:45:28;94603.38;;;10.50;46.45
11347;BME280;5728;42.722;23.258;2023-04-07T11:47:55;94608.06;;;11.20;44.15
11347;BME280;5728;42.722;23.258;2023-04-07T11:50:39;94601.53;;;11.01;44.10
11347;BME280;5728;42.722;23.258;2023-04-07T11:53:07;94602.84;;;10.77;43.51
11347;BME280;5728;42.722;23.258;2023-04-07T11:55:34;94603.19;;;10.61;46.20
11347;BME280;5728;42.722;23.258;2023-04-07T11:58:07;94597.00;;;10.68;44.55
11347;BME280;5728;42.722;23.258;2023-04-07T12:00:52;94600.25;;;10.77;45.26
11347;BME280;5728;42.722;23.258;2023-04-07T12:03:20;94595.72;;;10.43;44.48
11347;BME280;5728;42.722;23.258;2023-04-07T12:05:48;94592.31;;;9.89;46.27
11347;BME280;5728;42.722;23.258;2023-04-07T12:08:15;94596.63;;;10.40;45.74
11347;BME280;5728;42.722;23.258;2023-04-07T12:10:44;94587.09;;;9.92;45.29
11347;BME280;5728;42.722;23.258;2023-04-07T12:13:12;94597.31;;;9.99;46.44
11347;BME280;5728;42.722;23.258;2023-04-07T12:15:39;94598.94;;;10.05;45.74
11347;BME280;5728;42.722;23.258;2023-04-07T12:18:06;94600.47;;;10.18;46.03
11347;BME280;5728;42.722;23.258;2023-04-07T12:20:33;94593.19;;;10.40;45.22
11347;BME280;5728;42.722;23.258;2023-04-07T12:23:01;94591.69;;;10.28;45.67
11347;BME280;5728;42.722;23.258;2023-04-07T12:25:28;94592.09;;;10.01;45.45
11347;BME280;5728;42.722;23.258;2023-04-07T12:27:55;94585.22;;;9.42;45.95
11347;BME280;5728;42.722;23.258;2023-04-07T12:30:21;94598.44;;;9.22;47.61
11347;BME280;5728;42.722;23.258;2023-04-07T12:32:48;94590.19;;;9.57;47.86
11347;BME280;5728;42.722;23.258;2023-04-07T12:35:15;94593.94;;;9.94;48.52
11347;BME280;5728;42.722;23.258;2023-04-07T12:37:42;94590.13;;;10.18;47.35
11347;BME280;5728;42.722;23.258;2023-04-07T12:40:10;94588.44;;;10.17;45.92
11347;BME280;5728;42.722;23.258;2023-04-07T12:42:38;94588.47;;;10.14;46.68
11347;BME280;5728;42.722;23.258;2023-04-07T12:45:06;94600.28;;;10.30;45.96
11347;BME280;5728;42.722;23.258;2023-04-07T12:47:33;94615.94;;;10.24;46.09
11347;BME280;5728;42.722;23.258;2023-04-07T12:50:00;94586.31;;;10.37;45.79
11347;BME280;5728;42.722;23.258;2023-04-07T12:52:26;94597.22;;;10.05;46.30
11347;BME280;5728;42.722;23.258;2023-04-07T12:54:53;94588.16;;;10.32;46.30
11347;BME280;5728;42.722;23.258;2023-04-07T12:57:21;94592.28;;;9.92;46.19
11347;BME280;5728;42.722;23.258;2023-04-07T12:59:48;94595.09;;;10.30;46.90
11347;BME280;5728;42.722;23.258;2023-04-07T13:02:15;94596.06;;;10.24;46.99
11347;BME280;5728;42.722;23.258;2023-04-07T13:04:43;94605.94;;;10.00;46.55
11347;BME280;5728;42.722;23.258;2023-04-07T13:07:11;94601.78;;;9.90;47.46
11347;BME280;5728;42.722;23.258;2023-04-07T13:09:38;94600.28;;;10.30;45.98
11347;BME280;5728;42.722;23.258;2023-04-07T13:12:05;94600.09;;;10.41;46.17
11347;BME280;5728;42.722;23.258;2023-04-07T13:14:33;94595.75;;;9.88;47.01
11347;BME280;5728;42.722;23.258;2023-04-07T13:17:00;94599.03;;;10.00;47.66
11347;BME280;5728;42.722;23.258;2023-04-07T13:19:27;94597.06;;;10.16;47.71
11347;BME280;5728;42.722;23.258;2023-04-07T13:21:53;94596.75;;;9.81;48.41
11347;BME280;5728;42.722;23.258;2023-04-07T13:24:20;94601.19;;;9.74;47.98
11347;BME280;5728;42.722;23.258;2023-04-07T13:26:47;94600.13;;;9.86;48.54